Time;durP1;ratioP1;P1;durP2;ratioP2;P2;SDS_P1;SDS_P2;PMS_P1;PMS_P2;Temp;Humidity;BMP_temperature;BMP_pressure;BME280_temperature;BME280_humidity;BME280_pressure;Samples;Min_cycle;Max_cycle;Signal;HPM_P1;HPM_P2
2022/12/06 15:03:07;;;;;;;8.27;2.92;;;5.30;87.70;;;;;;5132085;27;20103;-60
2022/12/06 15:05:38;;;;;;;7.97;3.53;;;5.30;87.70;;;;;;5131769;28;20023;-60
2022/12/06 15:08:26;;;;;;;6.78;3.88;;;5.30;87.80;;;;;;5113219;28;20020;-59
2022/12/06 15:14:35;;;;;;;11.18;3.83;;;5.40;87.80;;;;;;5132166;28;20038;-61
2022/12/06 15:17:08;;;;;;;5.38;3.03;;;5.40;87.70;;;;;;5112933;28;20031;-61
2022/12/06 15:19:42;;;;;;;4.28;2.92;;;5.40;87.80;;;;;;5131162;28;20536;-60
2022/12/06 15:22:23;;;;;;;4.80;2.95;;;5.30;87.80;;;;;;5131276;28;20024;-61
2022/12/06 15:24:50;;;;;;;7.35;3.28;;;5.30;88.10;;;;;;5131070;28;20371;-59
2022/12/06 15:27:20;;;;;;;5.93;3.90;;;5.40;88.10;;;;;;5131035;28;20047;-61
2022/12/06 15:29:46;;;;;;;5.85;3.60;;;5.30;88.30;;;;;;5113050;28;20061;-61
2022/12/06 15:32:14;;;;;;;4.43;3.22;;;5.30;88.40;;;;;;5131015;28;20175;-60
2022/12/06 15:34:41;;;;;;;7.03;4.53;;;5.30;88.30;;;;;;5130854;28;20032;-59
2022/12/06 15:37:09;;;;;;;6.75;4.78;;;5.30;88.60;;;;;;5130748;28;20024;-61
2022/12/06 15:39:35;;;;;;;6.47;3.97;;;5.30;88.40;;;;;;5130724;28;20023;-62
2022/12/06 15:42:01;;;;;;;7.85;4.22;;;5.20;88.60;;;;;;5130984;27;20034;-58
2022/12/06 15:44:26;;;;;;;8.35;3.63;;;5.20;88.80;;;;;;5130711;27;20472;-61
2022/12/06 15:46:53;;;;;;;6.28;3.75;;;5.20;88.70;;;;;;5130639;27;20027;-64
2022/12/06 15:49:27;;;;;;;13.27;4.80;;;5.10;88.80;;;;;;5130470;27;20051;-60
2022/12/06 15:51:53;;;;;;;10.38;4.57;;;5.20;88.80;;;;;;5131099;27;20035;-60
2022/12/06 15:54:24;;;;;;;5.70;3.60;;;5.10;88.90;;;;;;5130848;27;20029;-58
2022/12/06 15:56:51;;;;;;;5.50;3.78;;;5.10;88.90;;;;;;5129308;28;20030;-62
2022/12/06 15:59:18;;;;;;;4.93;3.55;;;5.10;88.90;;;;;;5130334;27;20049;-61
2022/12/06 16:01:48;;;;;;;6.38;4.15;;;5.10;89.10;;;;;;5130241;27;20039;-61
2022/12/06 16:04:16;;;;;;;7.80;3.92;;;5.10;89.00;;;;;;5130538;27;20016;-60
2022/12/06 16:06:43;;;;;;;7.00;4.10;;;5.10;88.90;;;;;;5129140;28;20031;-61
2022/12/06 16:09:10;;;;;;;13.70;4.32;;;5.10;88.80;;;;;;5129965;27;20043;-60
2022/12/06 16:11:35;;;;;;;12.68;4.97;;;5.20;88.90;;;;;;5130383;27;20028;-59
2022/12/06 16:14:01;;;;;;;11.07;4.70;;;5.10;88.90;;;;;;5118702;27;20051;-59
2022/12/06 16:16:27;;;;;;;7.57;4.43;;;5.10;88.90;;;;;;5116577;28;20491;-58
2022/12/06 16:18:54;;;;;;;17.98;6.50;;;5.10;89.10;;;;;;5115205;28;20102;-60
2022/12/06 16:21:23;;;;;;;12.52;4.75;;;5.10;88.90;;;;;;5116963;28;20055;-59
2022/12/06 16:24:01;;;;;;;6.47;4.13;;;5.20;88.90;;;;;;5115035;28;20073;-58
2022/12/06 16:26:32;;;;;;;6.93;3.88;;;5.10;88.80;;;;;;5116732;28;20535;-59
2022/12/06 16:29:00;;;;;;;8.60;4.28;;;5.10;88.70;;;;;;5116433;28;20034;-59
2022/12/06 16:31:26;;;;;;;4.95;3.35;;;5.10;88.60;;;;;;5115925;28;20038;-59
2022/12/06 16:33:52;;;;;;;7.75;3.63;;;5.10;88.70;;;;;;5114851;28;20020;-61
2022/12/06 16:36:31;;;;;;;8.15;3.78;;;5.10;88.70;;;;;;5116032;28;20114;-59
2022/12/06 16:39:03;;;;;;;7.07;3.75;;;5.10;88.60;;;;;;5114697;28;20053;-61
2022/12/06 16:41:33;;;;;;;8.63;4.70;;;5.10;88.60;;;;;;5116176;28;20042;-60
2022/12/06 16:43:59;;;;;;;14.07;4.68;;;5.10;88.60;;;;;;5114607;28;20019;-62
2022/12/06 16:46:31;;;;;;;5.55;3.30;;;5.10;88.60;;;;;;5114465;28;20055;-60
2022/12/06 16:48:59;;;;;;;9.50;3.90;;;5.10;88.60;;;;;;5115617;28;20077;-59
2022/12/06 16:51:28;;;;;;;6.85;4.38;;;5.10;88.60;;;;;;5116033;28;20031;-61
2022/12/06 16:53:53;;;;;;;8.00;5.47;;;5.10;88.60;;;;;;5114444;28;20031;-61
2022/12/06 16:56:19;;;;;;;11.65;6.05;;;5.10;88.70;;;;;;5116177;28;20115;-60
2022/12/06 16:58:46;;;;;;;6.05;4.28;;;5.10;88.70;;;;;;5117339;28;20031;-65
2022/12/06 17:01:36;;;;;;;12.55;6.00;;;5.10;88.80;;;;;;5117371;28;20122;-60
2022/12/06 17:04:13;;;;;;;7.47;4.80;;;5.10;89.00;;;;;;5117096;28;20028;-60
2022/12/06 17:06:45;;;;;;;6.55;4.47;;;5.10;89.00;;;;;;5116328;28;20031;-59
2022/12/06 17:09:13;;;;;;;8.45;5.43;;;5.10;89.10;;;;;;5117194;28;20034;-59
2022/12/06 17:14:24;;;;;;;7.00;4.85;;;5.20;88.70;;;;;;5116069;28;20030;-58
2022/12/06 17:16:50;;;;;;;12.93;4.97;;;5.20;88.70;;;;;;5115682;28;20380;-58
2022/12/06 17:19:20;;;;;;;16.60;5.05;;;5.10;88.90;;;;;;5115413;28;20020;-60
2022/12/06 17:21:46;;;;;;;7.00;4.60;;;5.20;88.80;;;;;;5115178;28;20024;-60
2022/12/06 17:24:13;;;;;;;9.50;5.93;;;5.20;88.80;;;;;;5114628;28;20072;-59
2022/12/06 17:26:39;;;;;;;10.93;6.28;;;5.20;88.80;;;;;;5114814;28;20035;-59
2022/12/06 17:29:05;;;;;;;9.02;5.57;;;5.20;88.60;;;;;;5113863;28;20020;-59
2022/12/06 17:31:31;;;;;;;15.63;5.80;;;5.20;88.80;;;;;;5115379;28;20387;-60
2022/12/06 17:33:58;;;;;;;9.40;4.55;;;5.20;88.70;;;;;;5114965;28;20024;-59
2022/12/06 17:36:24;;;;;;;12.25;6.25;;;5.20;88.80;;;;;;5115092;28;20030;-60
2022/12/06 17:38:51;;;;;;;9.32;4.97;;;5.20;88.50;;;;;;5114704;28;20031;-60
2022/12/06 17:44:23;;;;;;;14.30;5.13;;;5.30;88.60;;;;;;5072084;28;20017;-62
2022/12/06 17:46:49;;;;;;;11.82;6.00;;;5.20;88.60;;;;;;5072375;28;20031;-60
2022/12/06 17:49:19;;;;;;;9.93;5.70;;;5.20;88.70;;;;;;5091724;27;20119;-59
2022/12/06 17:51:45;;;;;;;9.40;5.03;;;5.20;88.70;;;;;;5079724;28;20387;-60
2022/12/06 17:54:11;;;;;;;13.18;5.45;;;5.20;88.60;;;;;;5113328;28;20036;-62
2022/12/06 17:56:42;;;;;;;11.93;5.55;;;5.30;88.70;;;;;;5114722;28;20115;-58
2022/12/06 17:59:13;;;;;;;10.48;5.60;;;5.30;88.50;;;;;;5115054;28;20034;-60
2022/12/06 18:01:39;;;;;;;8.45;5.15;;;5.30;88.70;;;;;;5114577;28;20044;-60
2022/12/06 18:04:07;;;;;;;12.00;6.43;;;5.30;88.50;;;;;;5114886;28;20024;-59
2022/12/06 18:06:34;;;;;;;11.68;6.55;;;5.30;88.70;;;;;;5114568;28;20043;-63
2022/12/06 18:09:00;;;;;;;13.63;6.95;;;5.30;88.70;;;;;;5114596;28;20099;-62
2022/12/06 18:11:27;;;;;;;11.75;6.90;;;5.30;88.90;;;;;;5114737;28;20055;-61
2022/12/06 18:13:54;;;;;;;12.90;6.68;;;5.20;88.80;;;;;;5114491;28;20487;-60
2022/12/06 18:16:22;;;;;;;13.80;6.47;;;5.40;88.80;;;;;;5114424;28;20092;-60
2022/12/06 18:18:50;;;;;;;14.95;6.68;;;5.30;88.60;;;;;;5114816;28;20023;-61
2022/12/06 18:21:16;;;;;;;15.35;7.78;;;5.30;88.60;;;;;;5114100;28;20032;-61
2022/12/06 18:23:43;;;;;;;19.98;7.53;;;5.30;88.90;;;;;;5114088;28;20016;-60
2022/12/06 18:26:11;;;;;;;20.13;7.70;;;5.40;88.50;;;;;;5114255;28;20023;-58
2022/12/06 18:28:38;;;;;;;12.80;6.63;;;5.30;88.50;;;;;;5114658;28;20101;-63
2022/12/06 18:31:04;;;;;;;14.60;7.55;;;5.30;88.70;;;;;;5114177;28;20387;-59
2022/12/06 18:33:31;;;;;;;12.27;6.65;;;5.30;88.80;;;;;;5115263;28;20106;-62
2022/12/06 18:35:58;;;;;;;10.38;6.45;;;5.30;88.80;;;;;;5114947;28;20038;-61
2022/12/06 18:38:24;;;;;;;9.80;6.60;;;5.30;88.80;;;;;;5114329;28;20375;-60
2022/12/06 18:40:50;;;;;;;12.07;6.32;;;5.30;88.80;;;;;;5113901;28;20472;-60
2022/12/06 18:43:16;;;;;;;10.80;6.97;;;5.30;88.80;;;;;;5112685;28;20081;-59
2022/12/06 18:45:41;;;;;;;19.42;6.78;;;5.30;88.80;;;;;;5114720;28;20015;-61
2022/12/06 18:48:07;;;;;;;10.88;6.70;;;5.40;88.70;;;;;;5114031;28;20023;-60
2022/12/06 18:50:37;;;;;;;11.27;6.93;;;5.30;88.50;;;;;;5112698;28;20024;-60
2022/12/06 18:53:03;;;;;;;12.48;7.18;;;5.30;88.60;;;;;;5114089;28;20030;-61
2022/12/06 18:55:29;;;;;;;16.67;7.07;;;5.30;88.60;;;;;;5114693;28;20387;-61
2022/12/06 18:57:54;;;;;;;15.27;6.45;;;5.40;88.50;;;;;;5112402;28;20035;-61
2022/12/06 19:00:20;;;;;;;15.63;6.65;;;5.30;88.30;;;;;;5113992;28;20471;-58
2022/12/06 19:02:46;;;;;;;13.38;6.68;;;5.40;88.20;;;;;;5114023;28;20074;-59
2022/12/06 19:05:11;;;;;;;12.20;6.95;;;5.40;88.40;;;;;;5114063;28;20020;-62
2022/12/06 19:07:37;;;;;;;13.05;6.20;;;5.40;88.30;;;;;;5113866;28;20066;-61
2022/12/06 19:10:03;;;;;;;11.77;6.75;;;5.40;88.20;;;;;;5113652;28;20020;-61
2022/12/06 19:12:29;;;;;;;17.75;6.18;;;5.40;88.30;;;;;;5113723;28;20024;-59
2022/12/06 19:14:54;;;;;;;15.82;6.80;;;5.30;88.30;;;;;;5113752;28;20028;-59
2022/12/06 19:17:20;;;;;;;17.75;6.65;;;5.30;88.40;;;;;;5114080;28;20031;-60
2022/12/06 19:19:45;;;;;;;13.73;6.65;;;5.40;88.40;;;;;;5114027;28;20020;-59
2022/12/06 19:22:11;;;;;;;12.88;7.43;;;5.40;88.40;;;;;;5114014;28;20019;-59
2022/12/06 19:24:37;;;;;;;9.27;6.38;;;5.40;88.30;;;;;;5113705;28;20046;-59
2022/12/06 19:27:02;;;;;;;11.63;6.25;;;5.40;88.30;;;;;;5113859;28;20019;-60
2022/12/06 19:29:28;;;;;;;13.65;7.85;;;5.40;88.30;;;;;;5113244;28;20023;-58
2022/12/06 19:31:56;;;;;;;14.00;8.27;;;5.50;88.30;;;;;;5113637;28;20031;-60
2022/12/06 19:34:26;;;;;;;15.45;6.50;;;5.50;88.40;;;;;;5113838;28;20030;-60
2022/12/06 19:36:57;;;;;;;10.77;6.88;;;5.40;88.60;;;;;;5113753;28;20035;-60
2022/12/06 19:39:24;;;;;;;13.15;7.82;;;5.40;88.80;;;;;;5112418;28;20333;-60
2022/12/06 19:44:34;;;;;;;15.68;7.65;;;5.50;88.80;;;;;;5113497;28;20022;-59
2022/12/06 19:47:00;;;;;;;12.15;6.93;;;5.40;89.10;;;;;;5113633;28;20409;-60
2022/12/06 19:49:27;;;;;;;11.98;6.47;;;5.40;89.10;;;;;;5116426;28;20039;-61
2022/12/06 19:51:52;;;;;;;16.20;8.32;;;5.50;89.10;;;;;;5117098;28;20057;-60
2022/12/06 19:54:29;;;;;;;12.90;7.65;;;5.50;89.10;;;;;;5117625;28;20040;-60
2022/12/06 19:56:57;;;;;;;15.75;7.20;;;5.50;89.00;;;;;;5117903;28;20031;-61
2022/12/06 19:59:25;;;;;;;14.40;8.75;;;5.40;89.20;;;;;;5115983;28;20051;-60
2022/12/06 20:01:52;;;;;;;11.98;7.72;;;5.50;89.20;;;;;;5116989;28;20039;-59
2022/12/06 20:04:24;;;;;;;11.73;7.65;;;5.40;89.30;;;;;;5082920;28;20024;-61
2022/12/06 20:06:51;;;;;;;17.38;8.98;;;5.40;89.60;;;;;;5115855;28;20024;-58
2022/12/06 20:09:18;;;;;;;15.82;9.70;;;5.40;89.80;;;;;;5115915;28;20076;-60
2022/12/06 20:12:03;;;;;;;17.30;8.90;;;5.40;89.90;;;;;;5116961;28;20031;-59
2022/12/06 20:14:34;;;;;;;15.52;9.70;;;5.40;89.90;;;;;;5115833;28;20118;-61
2022/12/06 20:17:00;;;;;;;16.98;8.70;;;5.50;89.90;;;;;;5115879;28;20053;-60
2022/12/06 20:19:26;;;;;;;17.08;10.65;;;5.40;90.00;;;;;;5116917;28;20024;-60
2022/12/06 20:21:52;;;;;;;24.42;11.32;;;5.40;90.30;;;;;;5117010;28;20072;-60
2022/12/06 20:24:20;;;;;;;16.33;10.18;;;5.40;90.30;;;;;;5115502;28;20480;-61
2022/12/06 20:26:48;;;;;;;16.98;11.50;;;5.40;90.30;;;;;;5116938;28;20019;-61
2022/12/06 20:29:16;;;;;;;18.90;11.43;;;5.50;90.50;;;;;;5116693;27;20020;-59
2022/12/06 20:31:42;;;;;;;19.98;11.95;;;5.40;90.50;;;;;;5117006;28;20042;-61
2022/12/06 20:34:11;;;;;;;18.15;11.60;;;5.40;90.70;;;;;;5117049;28;20517;-61
2022/12/06 20:36:38;;;;;;;24.90;13.48;;;5.40;91.00;;;;;;5116650;28;20076;-59
2022/12/06 20:39:04;;;;;;;19.55;12.68;;;5.30;91.30;;;;;;5117223;28;20405;-60
2022/12/06 20:41:31;;;;;;;18.67;12.40;;;5.30;91.40;;;;;;5117287;28;20020;-60
2022/12/06 20:43:57;;;;;;;27.50;13.55;;;5.30;91.60;;;;;;5116691;28;20026;-59
2022/12/06 20:46:26;;;;;;;22.63;13.35;;;5.30;91.70;;;;;;5116247;28;20491;-59
2022/12/06 20:48:52;;;;;;;24.13;13.80;;;5.30;91.90;;;;;;5116546;28;20472;-60
2022/12/06 20:51:23;;;;;;;18.10;12.35;;;5.30;92.00;;;;;;5116354;28;20497;-59
2022/12/06 20:53:51;;;;;;;24.38;15.05;;;5.30;92.10;;;;;;5116469;28;20031;-58
2022/12/06 20:56:19;;;;;;;25.45;12.93;;;5.30;92.00;;;;;;5116163;28;20031;-59
2022/12/06 20:58:46;;;;;;;20.33;13.23;;;5.30;92.10;;;;;;5116046;28;20055;-61
